Au Sable Chasm, New York
Current Conditions -  °F | °C
As of 11:53 AM on Friday 24 Oct 2014 (Local Time) from KPBG Reporting Station
Overcast Overcast  
Wind Chill: 43°   Ceiling: 3200
Heat Index: 49°   Visibility: 10mi
Dew Point: 40°   Wind: 17mph
Humidity: 71%   Direction: 360°N
Pressure: 29.87"   Gusts: NA
Location:  44.5125°N, 73.5235°W
Report Text: KPBG 241553Z AUTO 36015KT 10SM OVC032 09/04 A2987 RMK AO2 SLP115 T00940044
Loading
Personal Weather Stations






























Interactive Weather Map
Tropical Storm Tracking
New forecast layout! Learn more

10-Day Weather Forecast

Advertisements
Track Severe Weather on mobile